Time;durP1;ratioP1;P1;durP2;ratioP2;P2;SDS_P1;SDS_P2;PMS_P1;PMS_P2;Temp;Humidity;BMP_temperature;BMP_pressure;BME280_temperature;BME280_humidity;BME280_pressure;Samples;Min_cycle;Max_cycle;Signal;HPM_P1;HPM_P2
2021/11/27 00:01:57;;;;;;;0.20;0.20;;;4.50;99.90;;;;;;4976200;28;20043;-62
2021/11/27 00:04:23;;;;;;;0.10;0.10;;;4.50;99.90;;;;;;4974912;28;20027;-62
2021/11/27 00:06:49;;;;;;;0.75;0.75;;;4.50;99.90;;;;;;4974921;28;20070;-62
2021/11/27 00:09:15;;;;;;;0.05;0.05;;;4.50;99.90;;;;;;4975143;28;20035;-63
2021/11/27 00:11:41;;;;;;;0.10;0.10;;;4.50;99.90;;;;;;4976228;28;20062;-63
2021/11/27 00:14:09;;;;;;;1.00;0.95;;;4.50;99.90;;;;;;4975052;28;20460;-63
2021/11/27 00:16:35;;;;;;;1.58;1.48;;;4.50;99.90;;;;;;4975885;28;20113;-63
2021/11/27 00:19:03;;;;;;;0.10;0.10;;;4.50;99.90;;;;;;4976031;28;20034;-63
2021/11/27 00:21:29;;;;;;;9.23;1.75;;;4.50;99.90;;;;;;4976250;28;20038;-63
2021/11/27 00:23:55;;;;;;;0.10;0.10;;;4.50;99.90;;;;;;4975287;28;20069;-63
2021/11/27 00:26:22;;;;;;;0.10;0.10;;;4.50;99.90;;;;;;4976397;28;20113;-63
2021/11/27 00:28:49;;;;;;;0.00;0.00;;;4.50;99.90;;;;;;4974419;28;20050;-63
2021/11/27 00:31:23;;;;;;;0.63;0.63;;;4.50;99.90;;;;;;4974717;28;20043;-63
2021/11/27 00:33:50;;;;;;;0.10;0.10;;;4.40;99.90;;;;;;4975636;28;20027;-63
2021/11/27 00:36:17;;;;;;;0.00;0.00;;;4.40;99.90;;;;;;4974615;28;20113;-63
2021/11/27 00:38:43;;;;;;;0.22;0.22;;;4.40;99.90;;;;;;4974370;28;20162;-63
2021/11/27 00:41:11;;;;;;;0.10;0.10;;;4.40;99.90;;;;;;4975675;28;20070;-62
2021/11/27 00:43:39;;;;;;;0.10;0.10;;;4.40;99.90;;;;;;4974488;28;20129;-62
2021/11/27 00:46:05;;;;;;;0.10;0.10;;;4.30;99.90;;;;;;4975450;28;20480;-62
2021/11/27 00:48:32;;;;;;;0.10;0.10;;;4.30;99.90;;;;;;4974543;28;20161;-62
2021/11/27 00:51:13;;;;;;;0.40;0.40;;;4.30;99.90;;;;;;4974287;28;20034;-62
2021/11/27 00:53:40;;;;;;;0.20;0.20;;;4.30;99.90;;;;;;4975859;28;20074;-62
2021/11/27 00:56:07;;;;;;;0.00;0.00;;;4.30;99.90;;;;;;4974893;28;20102;-62
2021/11/27 00:58:33;;;;;;;0.10;0.10;;;4.30;99.90;;;;;;4975611;28;20027;-63
2021/11/27 01:01:06;;;;;;;0.10;0.10;;;4.30;99.90;;;;;;4974361;28;20030;-63
2021/11/27 01:03:35;;;;;;;0.10;0.10;;;4.30;99.90;;;;;;4974033;28;20483;-63
2021/11/27 01:06:07;;;;;;;0.10;0.10;;;4.20;99.90;;;;;;4958247;28;20042;-63
2021/11/27 01:08:34;;;;;;;0.10;0.10;;;4.20;99.90;;;;;;4975225;28;20078;-63
2021/11/27 01:11:11;;;;;;;0.10;0.10;;;4.20;99.90;;;;;;4973771;28;20045;-63
2021/11/27 01:13:40;;;;;;;0.10;0.10;;;4.10;99.90;;;;;;4974849;28;20031;-63
2021/11/27 01:16:07;;;;;;;0.10;0.10;;;4.10;99.90;;;;;;4975239;28;20035;-63
2021/11/27 01:18:33;;;;;;;0.10;0.10;;;4.10;99.90;;;;;;4974902;28;20034;-63
2021/11/27 01:21:05;;;;;;;0.10;0.10;;;4.00;99.90;;;;;;4973685;28;20034;-63
2021/11/27 01:23:31;;;;;;;0.10;0.10;;;4.00;99.90;;;;;;4975103;28;20035;-63
2021/11/27 01:25:57;;;;;;;0.10;0.10;;;4.00;99.90;;;;;;4974945;28;20379;-63
2021/11/27 01:28:24;;;;;;;0.63;0.40;;;4.00;99.90;;;;;;4973491;28;20034;-63
2021/11/27 01:30:55;;;;;;;0.10;0.10;;;4.00;99.90;;;;;;4974580;28;20035;-63
2021/11/27 01:33:21;;;;;;;0.10;0.10;;;3.90;99.90;;;;;;4974675;28;20522;-63
2021/11/27 01:35:50;;;;;;;0.00;0.00;;;3.90;99.90;;;;;;4973618;28;20089;-63
2021/11/27 01:38:16;;;;;;;0.10;0.10;;;3.90;99.90;;;;;;4974949;28;20496;-63
2021/11/27 01:40:43;;;;;;;0.30;0.30;;;3.90;99.90;;;;;;4974549;28;20042;-61
2021/11/27 01:43:10;;;;;;;0.00;0.00;;;3.80;99.90;;;;;;4973941;28;20038;-61
2021/11/27 01:45:36;;;;;;;0.10;0.10;;;3.80;99.90;;;;;;4974643;28;20058;-61
2021/11/27 01:48:14;;;;;;;0.10;0.10;;;3.80;99.90;;;;;;4973316;28;20031;-62
2021/11/27 01:50:51;;;;;;;0.10;0.10;;;3.80;99.90;;;;;;4973316;28;20077;-62
2021/11/27 01:53:17;;;;;;;0.10;0.10;;;3.80;99.90;;;;;;4973251;28;20035;-62
2021/11/27 01:55:44;;;;;;;0.10;0.10;;;3.80;99.90;;;;;;4974649;28;20098;-62
2021/11/27 01:58:11;;;;;;;0.10;0.10;;;3.80;99.90;;;;;;4974093;28;20050;-62
2021/11/27 02:00:43;;;;;;;0.10;0.10;;;3.80;99.90;;;;;;4989316;28;20472;-62
2021/11/27 02:03:09;;;;;;;0.10;0.10;;;3.80;99.90;;;;;;4973972;28;20046;-62
2021/11/27 02:05:35;;;;;;;0.10;0.10;;;3.80;99.90;;;;;;4974482;28;20034;-62
2021/11/27 02:08:01;;;;;;;0.10;0.10;;;3.80;99.90;;;;;;4974385;28;20046;-62
2021/11/27 02:10:28;;;;;;;0.10;0.10;;;3.80;99.90;;;;;;4973785;28;20041;-62
2021/11/27 02:12:54;;;;;;;0.45;0.45;;;3.80;99.90;;;;;;4974221;28;20031;-61
2021/11/27 02:15:21;;;;;;;0.20;0.20;;;3.70;99.90;;;;;;4972680;28;20023;-62
2021/11/27 02:17:48;;;;;;;0.10;0.10;;;3.70;99.90;;;;;;4973944;28;20113;-62
2021/11/27 02:20:14;;;;;;;0.10;0.10;;;3.80;99.90;;;;;;4974064;28;20027;-62
2021/11/27 02:22:41;;;;;;;0.10;0.10;;;3.80;99.90;;;;;;4973768;28;20057;-62
2021/11/27 02:25:16;;;;;;;0.10;0.10;;;3.80;99.90;;;;;;4972877;28;20034;-62
2021/11/27 02:27:46;;;;;;;2.72;2.30;;;3.80;99.90;;;;;;4972661;28;20034;-66
2021/11/27 02:30:15;;;;;;;0.50;0.50;;;3.80;99.90;;;;;;4972484;28;20034;-63
2021/11/27 02:32:45;;;;;;;0.10;0.10;;;3.80;99.90;;;;;;4973983;28;20027;-63
2021/11/27 02:35:11;;;;;;;0.10;0.10;;;3.70;99.90;;;;;;4972457;28;20030;-63
2021/11/27 02:37:37;;;;;;;0.10;0.10;;;3.80;99.90;;;;;;4972328;28;20352;-63
2021/11/27 02:40:07;;;;;;;0.10;0.10;;;3.80;99.90;;;;;;4973568;28;20042;-63
2021/11/27 02:42:33;;;;;;;0.10;0.10;;;3.80;99.90;;;;;;4972452;28;20038;-63
2021/11/27 02:44:59;;;;;;;0.10;0.10;;;3.80;99.90;;;;;;4973831;28;20045;-63
2021/11/27 02:47:25;;;;;;;0.20;0.20;;;3.80;99.90;;;;;;4973237;28;20031;-63
2021/11/27 02:49:51;;;;;;;0.10;0.10;;;3.80;99.90;;;;;;4972053;28;20078;-63
2021/11/27 02:52:17;;;;;;;0.10;0.10;;;3.80;99.90;;;;;;4972502;28;20031;-63
2021/11/27 02:54:43;;;;;;;0.30;0.30;;;3.80;99.90;;;;;;4972640;28;20109;-63
2021/11/27 02:57:09;;;;;;;0.10;0.10;;;3.80;99.90;;;;;;4973309;28;20118;-63
2021/11/27 02:59:35;;;;;;;0.10;0.10;;;3.80;99.90;;;;;;4973638;28;20046;-65
2021/11/27 03:02:04;;;;;;;0.10;0.10;;;3.80;99.90;;;;;;4972288;28;20019;-63
2021/11/27 03:04:34;;;;;;;0.10;0.10;;;3.80;99.90;;;;;;4973594;28;20086;-63
2021/11/27 03:07:01;;;;;;;0.00;0.00;;;3.90;99.90;;;;;;4972491;28;20127;-63
2021/11/27 03:09:27;;;;;;;0.10;0.10;;;3.90;99.90;;;;;;4972416;28;20122;-63
2021/11/27 03:11:56;;;;;;;0.10;0.10;;;3.90;99.90;;;;;;4972452;28;20424;-63
2021/11/27 03:14:25;;;;;;;0.10;0.10;;;3.90;99.90;;;;;;4972200;28;20031;-63
2021/11/27 03:16:53;;;;;;;2.28;2.17;;;3.90;99.90;;;;;;4971872;28;20085;-63
2021/11/27 03:19:19;;;;;;;0.10;0.10;;;3.90;99.90;;;;;;4972036;28;20038;-63
2021/11/27 03:21:46;;;;;;;0.10;0.10;;;3.90;99.90;;;;;;4972194;28;20039;-63
2021/11/27 03:24:12;;;;;;;0.10;0.10;;;3.90;99.90;;;;;;4973165;28;20104;-61
2021/11/27 03:26:39;;;;;;;0.10;0.10;;;3.90;99.90;;;;;;4972081;28;20035;-62
2021/11/27 03:29:05;;;;;;;0.00;0.00;;;4.00;99.90;;;;;;4973141;28;20042;-62
2021/11/27 03:31:32;;;;;;;0.10;0.10;;;3.90;99.90;;;;;;4973272;28;20075;-63
2021/11/27 03:33:58;;;;;;;0.10;0.10;;;4.00;99.90;;;;;;4971929;28;20035;-62
2021/11/27 03:36:24;;;;;;;0.10;0.10;;;4.00;99.90;;;;;;4971993;28;20042;-62
2021/11/27 03:38:50;;;;;;;0.10;0.10;;;4.00;99.90;;;;;;4973330;28;20034;-62
2021/11/27 03:41:16;;;;;;;0.10;0.10;;;4.00;99.90;;;;;;4972923;28;20380;-63
2021/11/27 03:43:43;;;;;;;0.00;0.00;;;4.10;99.90;;;;;;4972780;28;20522;-62
2021/11/27 03:46:10;;;;;;;0.00;0.00;;;4.10;99.90;;;;;;4972141;28;20418;-63
2021/11/27 03:48:41;;;;;;;0.10;0.10;;;4.10;99.90;;;;;;4972843;28;20090;-62
2021/11/27 03:51:15;;;;;;;0.00;0.00;;;4.10;99.90;;;;;;4971737;28;20062;-63
2021/11/27 03:53:42;;;;;;;0.10;0.10;;;4.10;99.90;;;;;;4971708;28;20035;-63
2021/11/27 03:56:18;;;;;;;0.10;0.10;;;4.10;99.90;;;;;;4972851;28;20560;-63
2021/11/27 03:58:44;;;;;;;0.10;0.10;;;4.10;99.90;;;;;;4973614;28;20058;-62
2021/11/27 04:01:13;;;;;;;0.10;0.10;;;4.20;99.90;;;;;;4975374;28;20026;-62
2021/11/27 04:03:42;;;;;;;0.10;0.10;;;4.20;99.90;;;;;;4976521;28;20426;-62
2021/11/27 04:06:09;;;;;;;0.10;0.10;;;4.20;99.90;;;;;;4976582;28;20038;-62
2021/11/27 04:08:35;;;;;;;0.10;0.10;;;4.20;99.90;;;;;;4976666;28;20431;-62
2021/11/27 04:11:02;;;;;;;0.00;0.00;;;4.20;99.90;;;;;;4975100;28;20027;-62
2021/11/27 04:13:28;;;;;;;1.95;0.60;;;4.20;99.90;;;;;;4976147;28;20023;-63
2021/11/27 04:15:54;;;;;;;0.10;0.10;;;4.20;99.90;;;;;;4976188;28;20098;-62
2021/11/27 04:18:19;;;;;;;0.10;0.10;;;4.10;99.90;;;;;;4975708;28;20035;-62
2021/11/27 04:20:45;;;;;;;0.10;0.10;;;4.10;99.90;;;;;;4975193;28;20035;-62
2021/11/27 04:23:12;;;;;;;0.00;0.00;;;4.00;99.90;;;;;;4976217;28;20043;-62
2021/11/27 04:25:39;;;;;;;0.00;0.00;;;4.00;99.90;;;;;;4975051;28;20042;-62
2021/11/27 04:28:05;;;;;;;0.00;0.00;;;4.00;99.90;;;;;;4974715;28;20468;-62
2021/11/27 04:30:32;;;;;;;0.05;0.05;;;3.90;99.90;;;;;;4975861;28;20077;-62
2021/11/27 04:32:59;;;;;;;0.20;0.20;;;3.90;99.90;;;;;;4974392;28;20050;-60
2021/11/27 04:35:29;;;;;;;0.03;0.03;;;3.90;99.90;;;;;;4974924;28;20038;-61
2021/11/27 04:37:55;;;;;;;0.10;0.10;;;3.90;99.90;;;;;;4976066;28;20027;-61
2021/11/27 04:40:22;;;;;;;0.10;0.10;;;3.80;99.90;;;;;;4975368;28;20027;-62
2021/11/27 04:42:48;;;;;;;0.10;0.10;;;3.80;99.90;;;;;;4974207;28;20035;-61
2021/11/27 04:45:14;;;;;;;0.10;0.10;;;3.80;99.90;;;;;;4974324;28;20037;-61
2021/11/27 04:47:41;;;;;;;0.43;0.43;;;3.80;99.90;;;;;;4975376;28;20393;-61
2021/11/27 04:50:09;;;;;;;0.10;0.10;;;3.80;99.90;;;;;;4975578;28;20031;-61
2021/11/27 04:52:35;;;;;;;0.10;0.10;;;3.80;99.90;;;;;;4975545;28;20166;-61
2021/11/27 04:55:02;;;;;;;0.10;0.10;;;3.80;99.90;;;;;;4973928;28;20026;-61
2021/11/27 04:57:28;;;;;;;0.10;0.10;;;3.80;99.90;;;;;;4974111;28;20054;-61
2021/11/27 04:59:54;;;;;;;0.40;0.40;;;3.80;99.90;;;;;;4973870;28;20113;-62
2021/11/27 05:02:20;;;;;;;0.45;0.45;;;3.80;99.90;;;;;;4975109;28;20097;-61
2021/11/27 05:04:46;;;;;;;0.10;0.10;;;3.80;99.90;;;;;;4974151;28;20039;-62
2021/11/27 05:07:12;;;;;;;0.10;0.10;;;3.70;99.90;;;;;;4975313;28;20495;-61
2021/11/27 05:09:38;;;;;;;0.10;0.10;;;3.70;99.90;;;;;;4975040;28;20085;-62
2021/11/27 05:12:04;;;;;;;0.10;0.10;;;3.70;99.90;;;;;;4975098;28;20038;-62
2021/11/27 05:14:30;;;;;;;0.00;0.00;;;3.70;99.90;;;;;;4975312;28;20043;-62
2021/11/27 05:16:55;;;;;;;0.10;0.10;;;3.70;99.90;;;;;;4973882;28;20547;-62
2021/11/27 05:19:21;;;;;;;0.00;0.00;;;3.70;99.90;;;;;;4975015;28;20037;-62
2021/11/27 05:21:47;;;;;;;0.13;0.13;;;3.70;99.90;;;;;;4974986;28;20430;-62
2021/11/27 05:24:13;;;;;;;0.10;0.10;;;3.70;99.90;;;;;;4973496;28;20109;-62
2021/11/27 05:26:38;;;;;;;0.10;0.10;;;3.60;99.90;;;;;;4974780;28;20034;-62
2021/11/27 05:29:04;;;;;;;0.10;0.10;;;3.60;99.90;;;;;;4973475;28;20492;-62
2021/11/27 05:31:30;;;;;;;0.10;0.10;;;3.60;99.90;;;;;;4975053;28;20042;-62
2021/11/27 05:36:41;;;;;;;0.10;0.10;;;3.60;99.90;;;;;;4974731;28;20114;-62
2021/11/27 05:39:07;;;;;;;0.10;0.10;;;3.60;99.90;;;;;;4974926;28;20030;-62
2021/11/27 05:41:32;;;;;;;0.10;0.10;;;3.70;99.90;;;;;;4973736;28;20043;-62
2021/11/27 05:43:59;;;;;;;0.10;0.10;;;3.70;99.90;;;;;;4974203;28;20043;-62
2021/11/27 05:46:25;;;;;;;0.25;0.25;;;3.70;99.90;;;;;;4974289;28;20113;-62
2021/11/27 05:48:51;;;;;;;0.10;0.10;;;3.70;99.90;;;;;;4974244;28;20030;-62
2021/11/27 05:51:17;;;;;;;0.45;0.45;;;3.70;99.90;;;;;;4972866;28;20037;-62
2021/11/27 05:53:43;;;;;;;0.00;0.00;;;3.80;99.90;;;;;;4974624;28;20031;-62
2021/11/27 05:56:10;;;;;;;0.17;0.17;;;3.80;99.90;;;;;;4972997;28;20035;-62
2021/11/27 05:58:36;;;;;;;0.10;0.10;;;3.80;99.90;;;;;;4957082;28;20038;-62
2021/11/27 06:01:06;;;;;;;0.00;0.00;;;3.80;99.90;;;;;;4974108;28;20027;-62
2021/11/27 06:03:33;;;;;;;0.10;0.10;;;3.80;99.90;;;;;;4972919;28;20035;-62
2021/11/27 06:06:00;;;;;;;0.00;0.00;;;3.80;99.90;;;;;;4973058;28;20035;-61
2021/11/27 06:08:26;;;;;;;0.00;0.00;;;3.80;99.90;;;;;;4972710;28;20031;-61
2021/11/27 06:10:52;;;;;;;0.20;0.20;;;3.90;99.90;;;;;;4972858;28;20424;-61
2021/11/27 06:13:17;;;;;;;0.15;0.15;;;3.80;99.90;;;;;;4974080;28;20112;-62
2021/11/27 06:15:43;;;;;;;0.10;0.10;;;3.90;99.90;;;;;;4974122;28;20105;-62
2021/11/27 06:18:09;;;;;;;0.00;0.00;;;3.90;99.90;;;;;;4972896;28;20035;-62
2021/11/27 06:20:35;;;;;;;0.10;0.10;;;3.90;99.90;;;;;;4972550;28;20052;-62
2021/11/27 06:23:00;;;;;;;0.10;0.10;;;3.90;99.90;;;;;;4973457;28;20097;-62
2021/11/27 06:25:27;;;;;;;0.10;0.10;;;3.90;99.90;;;;;;4973950;28;20535;-62
2021/11/27 06:27:54;;;;;;;0.05;0.05;;;3.90;99.90;;;;;;4973824;28;20035;-62
2021/11/27 06:30:20;;;;;;;0.10;0.10;;;3.90;99.90;;;;;;4973889;28;20031;-63
2021/11/27 06:32:46;;;;;;;0.45;0.45;;;3.90;99.90;;;;;;4973548;28;20031;-63
2021/11/27 06:35:13;;;;;;;0.52;0.52;;;3.90;99.90;;;;;;4972261;28;20110;-62
2021/11/27 06:37:39;;;;;;;0.10;0.10;;;3.90;99.90;;;;;;4973686;28;20134;-63
2021/11/27 06:40:06;;;;;;;0.10;0.10;;;3.90;99.90;;;;;;4973851;28;20039;-63
2021/11/27 06:42:32;;;;;;;0.10;0.10;;;3.90;99.90;;;;;;4973621;28;20035;-62
2021/11/27 06:44:58;;;;;;;0.10;0.10;;;3.90;99.90;;;;;;4972350;28;20055;-63
2021/11/27 06:47:24;;;;;;;1.00;1.00;;;3.90;99.90;;;;;;4973721;28;20047;-63
2021/11/27 06:49:51;;;;;;;0.08;0.08;;;3.90;99.90;;;;;;4973072;28;20527;-68
2021/11/27 06:52:18;;;;;;;0.08;0.08;;;3.90;99.90;;;;;;4971984;28;20034;-61
2021/11/27 06:54:45;;;;;;;0.10;0.10;;;3.90;99.90;;;;;;4973715;28;20154;-62
2021/11/27 06:57:11;;;;;;;0.10;0.10;;;3.90;99.90;;;;;;4973323;28;20045;-62
2021/11/27 06:59:40;;;;;;;0.10;0.10;;;3.90;99.90;;;;;;4973630;28;20035;-63
2021/11/27 07:02:06;;;;;;;0.10;0.10;;;4.00;99.90;;;;;;4973172;28;20031;-63
2021/11/27 07:04:32;;;;;;;0.10;0.10;;;3.90;99.90;;;;;;4973544;28;20053;-63
2021/11/27 07:06:58;;;;;;;0.40;0.40;;;3.90;99.90;;;;;;4972198;28;20472;-63
2021/11/27 07:09:24;;;;;;;0.47;0.47;;;3.90;99.90;;;;;;4955980;28;20031;-63
2021/11/27 07:11:50;;;;;;;0.10;0.10;;;4.00;99.90;;;;;;4972945;28;20038;-64
2021/11/27 07:14:16;;;;;;;0.10;0.10;;;3.90;99.90;;;;;;4973004;28;20117;-63
2021/11/27 07:16:42;;;;;;;0.10;0.10;;;4.00;99.90;;;;;;4972002;28;20033;-63
2021/11/27 07:19:08;;;;;;;0.05;0.05;;;4.00;99.90;;;;;;4973350;28;20041;-63
2021/11/27 07:21:34;;;;;;;0.10;0.10;;;4.00;99.90;;;;;;4973501;28;20031;-62
2021/11/27 07:24:00;;;;;;;0.10;0.10;;;4.00;99.90;;;;;;4973142;28;20043;-62
2021/11/27 07:26:26;;;;;;;0.10;0.10;;;4.00;99.90;;;;;;4972928;28;20693;-62
2021/11/27 07:28:52;;;;;;;0.10;0.10;;;4.00;99.90;;;;;;4973544;28;20035;-63
2021/11/27 07:31:18;;;;;;;0.10;0.10;;;4.00;99.90;;;;;;4971759;28;20118;-62
2021/11/27 07:33:46;;;;;;;0.65;0.65;;;4.00;99.90;;;;;;4972769;28;20113;-62
2021/11/27 07:36:12;;;;;;;0.10;0.10;;;4.00;99.90;;;;;;4977016;28;20066;-63
2021/11/27 07:38:38;;;;;;;0.10;0.10;;;4.10;99.90;;;;;;4976761;28;20066;-63
2021/11/27 07:41:04;;;;;;;0.10;0.10;;;4.10;99.90;;;;;;4975557;28;20077;-62
2021/11/27 07:43:31;;;;;;;0.00;0.00;;;4.10;99.90;;;;;;4975279;28;20443;-62
2021/11/27 07:45:57;;;;;;;0.32;0.32;;;4.10;99.90;;;;;;4976524;28;20034;-63
2021/11/27 07:48:24;;;;;;;0.10;0.10;;;4.10;99.90;;;;;;4976032;28;20472;-63
2021/11/27 07:50:50;;;;;;;0.10;0.10;;;4.20;99.90;;;;;;4975251;28;20051;-63
2021/11/27 07:53:16;;;;;;;0.13;0.13;;;4.10;99.90;;;;;;4976428;28;20027;-63
2021/11/27 07:55:43;;;;;;;0.10;0.10;;;4.20;99.90;;;;;;4976565;28;20038;-63
2021/11/27 07:58:09;;;;;;;0.10;0.10;;;4.20;99.90;;;;;;4974881;28;20113;-62
2021/11/27 08:00:35;;;;;;;0.10;0.10;;;4.30;99.90;;;;;;4976500;28;20113;-62
2021/11/27 08:03:00;;;;;;;2.17;1.05;;;4.20;99.90;;;;;;4958951;28;20034;-63
2021/11/27 08:05:26;;;;;;;0.13;0.13;;;4.20;99.90;;;;;;4976231;28;20034;-62
2021/11/27 08:07:52;;;;;;;0.38;0.38;;;4.20;99.90;;;;;;4925857;28;20034;-61
2021/11/27 08:10:18;;;;;;;0.10;0.10;;;4.20;99.90;;;;;;4976406;28;20039;-62
2021/11/27 08:12:46;;;;;;;0.10;0.10;;;4.20;99.90;;;;;;4976014;28;20491;-62
2021/11/27 08:15:12;;;;;;;0.10;0.10;;;4.20;99.90;;;;;;4976270;28;20041;-63
2021/11/27 08:17:40;;;;;;;0.10;0.10;;;4.20;99.90;;;;;;4974968;28;20066;-62
2021/11/27 08:20:08;;;;;;;0.10;0.10;;;4.20;99.90;;;;;;4976326;28;20121;-62
2021/11/27 08:22:34;;;;;;;0.10;0.10;;;4.20;99.90;;;;;;4974736;28;20034;-63
2021/11/27 08:25:00;;;;;;;0.10;0.10;;;4.20;99.90;;;;;;4975748;28;20038;-63
2021/11/27 08:27:27;;;;;;;0.10;0.10;;;4.30;99.90;;;;;;4975840;28;20031;-63
2021/11/27 08:29:55;;;;;;;0.10;0.10;;;4.20;99.90;;;;;;4974636;28;20506;-63
2021/11/27 08:32:21;;;;;;;0.10;0.10;;;4.30;99.90;;;;;;4975592;28;20571;-63
2021/11/27 08:34:47;;;;;;;0.40;0.40;;;4.30;99.90;;;;;;4974757;28;20031;-63
2021/11/27 08:37:14;;;;;;;0.10;0.10;;;4.40;99.90;;;;;;4975975;28;20459;-62
2021/11/27 08:39:40;;;;;;;0.10;0.10;;;4.40;99.90;;;;;;4975727;28;20046;-62
2021/11/27 08:42:05;;;;;;;0.10;0.10;;;4.50;99.90;;;;;;4976044;28;20039;-62
2021/11/27 08:44:31;;;;;;;0.10;0.10;;;4.50;99.90;;;;;;4973645;28;20153;-63
2021/11/27 08:46:57;;;;;;;0.38;0.38;;;4.60;99.90;;;;;;4975382;28;20069;-62
2021/11/27 08:49:23;;;;;;;0.10;0.10;;;4.60;99.90;;;;;;4975273;28;20062;-63
2021/11/27 08:51:49;;;;;;;0.10;0.10;;;4.70;99.90;;;;;;4974148;28;20035;-63
2021/11/27 08:54:15;;;;;;;0.10;0.10;;;4.70;99.90;;;;;;4975026;28;20391;-62
2021/11/27 08:56:43;;;;;;;0.10;0.10;;;4.80;99.90;;;;;;4974272;28;20039;-63
2021/11/27 08:59:09;;;;;;;0.10;0.10;;;4.80;99.90;;;;;;4975524;28;20130;-62
2021/11/27 09:01:35;;;;;;;0.00;0.00;;;4.70;99.90;;;;;;4975495;28;20113;-63
2021/11/27 09:04:00;;;;;;;0.10;0.10;;;4.70;99.90;;;;;;4975439;28;20058;-63
2021/11/27 09:06:27;;;;;;;0.00;0.00;;;4.70;99.90;;;;;;4974939;28;20066;-64
2021/11/27 09:08:54;;;;;;;0.43;0.43;;;4.70;99.90;;;;;;4973942;28;20039;-63
2021/11/27 09:11:22;;;;;;;0.10;0.10;;;4.70;99.90;;;;;;4957729;28;20089;-64
2021/11/27 09:13:50;;;;;;;0.00;0.00;;;4.80;99.90;;;;;;4974983;28;20106;-64
2021/11/27 09:16:17;;;;;;;0.10;0.10;;;4.80;99.90;;;;;;4974743;28;20031;-64
2021/11/27 09:18:43;;;;;;;0.00;0.00;;;4.80;99.90;;;;;;4974994;28;20027;-69
2021/11/27 09:21:09;;;;;;;0.00;0.00;;;4.80;99.90;;;;;;4974954;28;20041;-65
2021/11/27 09:23:35;;;;;;;0.10;0.10;;;4.90;99.90;;;;;;4975042;28;20054;-66
2021/11/27 09:26:00;;;;;;;0.00;0.00;;;4.90;99.90;;;;;;4975035;28;20027;-63
2021/11/27 09:28:26;;;;;;;0.00;0.00;;;4.90;99.90;;;;;;4973448;28;20039;-62
2021/11/27 09:30:53;;;;;;;0.00;0.00;;;4.90;99.90;;;;;;4974520;28;20031;-63
2021/11/27 09:33:19;;;;;;;0.10;0.10;;;4.90;99.90;;;;;;4974466;28;20031;-63
2021/11/27 09:36:19;;;;;;;0.00;0.00;;;4.90;99.90;;;;;;4973678;28;20476;-64
2021/11/27 09:38:38;;;;;;;0.00;0.00;;;4.90;99.90;;;;;;4975221;28;20389;-63
2021/11/27 09:41:25;;;;;;;0.10;0.10;;;4.80;99.90;;;;;;4974389;28;20114;-64
2021/11/27 09:43:53;;;;;;;0.10;0.10;;;4.90;99.90;;;;;;4972951;28;20522;-64
2021/11/27 09:46:22;;;;;;;0.10;0.10;;;4.90;99.90;;;;;;4974243;28;20476;-64
2021/11/27 09:48:51;;;;;;;0.00;0.00;;;4.80;99.90;;;;;;4974328;28;20027;-64
2021/11/27 09:51:25;;;;;;;0.00;0.00;;;4.80;99.90;;;;;;4973316;28;20089;-64
2021/11/27 09:53:55;;;;;;;0.00;0.00;;;4.90;99.90;;;;;;4974593;28;20154;-64
2021/11/27 09:56:22;;;;;;;0.10;0.10;;;5.00;99.90;;;;;;4972986;28;20427;-64
2021/11/27 09:58:49;;;;;;;0.10;0.10;;;5.00;99.90;;;;;;4974217;28;20144;-63
2021/11/27 10:01:18;;;;;;;0.15;0.15;;;5.00;99.90;;;;;;4973940;28;20113;-64
2021/11/27 10:04:03;;;;;;;0.00;0.00;;;5.00;99.90;;;;;;4972931;28;20041;-63
2021/11/27 10:06:33;;;;;;;0.00;0.00;;;5.10;99.90;;;;;;4973072;28;20688;-65
2021/11/27 10:09:07;;;;;;;0.10;0.10;;;5.10;99.90;;;;;;4972870;28;20045;-65
2021/11/27 10:11:35;;;;;;;0.00;0.00;;;5.10;99.90;;;;;;4972752;28;20035;-64
2021/11/27 10:14:01;;;;;;;1.13;0.63;;;5.10;99.90;;;;;;4973080;28;20050;-64
2021/11/27 10:16:28;;;;;;;0.10;0.10;;;5.10;99.90;;;;;;4973930;28;20034;-64
2021/11/27 10:19:11;;;;;;;0.10;0.10;;;5.10;99.90;;;;;;4973836;28;20077;-64
2021/11/27 10:21:39;;;;;;;0.00;0.00;;;5.10;99.90;;;;;;4973915;28;20058;-65
2021/11/27 10:24:31;;;;;;;0.10;0.10;;;5.10;99.90;;;;;;4972627;28;20404;-63
2021/11/27 10:27:00;;;;;;;0.32;0.32;;;5.10;99.90;;;;;;4973866;28;20488;-64
2021/11/27 10:29:31;;;;;;;0.40;0.40;;;5.10;99.90;;;;;;4972442;28;20027;-64
2021/11/27 10:32:15;;;;;;;2.92;1.77;;;5.10;99.90;;;;;;4973982;28;20030;-62
2021/11/27 10:34:54;;;;;;;0.10;0.10;;;5.10;99.90;;;;;;4973980;28;20023;-66
2021/11/27 10:37:31;;;;;;;0.10;0.10;;;5.20;99.90;;;;;;4972353;28;20120;-63
2021/11/27 10:40:00;;;;;;;0.10;0.10;;;5.10;99.90;;;;;;4973659;28;20062;-63
2021/11/27 10:42:26;;;;;;;0.20;0.20;;;5.20;99.90;;;;;;4973439;28;20035;-63
2021/11/27 10:44:55;;;;;;;0.00;0.00;;;5.30;99.90;;;;;;4972114;28;20174;-63
2021/11/27 10:47:23;;;;;;;0.10;0.10;;;5.30;99.90;;;;;;4972136;28;20042;-64
2021/11/27 10:49:50;;;;;;;0.45;0.45;;;5.30;99.90;;;;;;4956076;28;20041;-64
2021/11/27 10:52:20;;;;;;;0.00;0.00;;;5.30;99.90;;;;;;4973565;28;20050;-64
2021/11/27 10:54:54;;;;;;;0.05;0.05;;;5.30;99.90;;;;;;4972272;28;20038;-63
2021/11/27 10:57:38;;;;;;;0.00;0.00;;;5.30;99.90;;;;;;4972441;28;20031;-62
2021/11/27 11:00:12;;;;;;;0.10;0.10;;;5.20;99.90;;;;;;4973354;28;20471;-62
2021/11/27 11:02:39;;;;;;;0.10;0.10;;;5.20;99.90;;;;;;4972544;28;20031;-63
2021/11/27 11:05:14;;;;;;;0.10;0.10;;;5.20;99.90;;;;;;4971969;28;20050;-64
2021/11/27 11:07:53;;;;;;;0.00;0.00;;;5.20;99.90;;;;;;4973678;28;20041;-63
2021/11/27 11:10:25;;;;;;;0.10;0.10;;;5.20;99.90;;;;;;4976630;28;20042;-63
2021/11/27 11:13:11;;;;;;;0.10;0.10;;;5.20;99.90;;;;;;4977084;28;20053;-63
2021/11/27 11:15:43;;;;;;;0.00;0.00;;;5.20;99.90;;;;;;4977311;28;20038;-61
2021/11/27 11:18:14;;;;;;;0.00;0.00;;;5.20;99.90;;;;;;4976196;28;20082;-64
2021/11/27 11:20:54;;;;;;;0.10;0.10;;;5.10;99.90;;;;;;4977101;28;20039;-63
2021/11/27 11:23:35;;;;;;;1.00;0.83;;;5.10;99.90;;;;;;4977237;28;20034;-64
2021/11/27 11:26:04;;;;;;;0.20;0.20;;;5.20;99.90;;;;;;4976916;28;20325;-62
2021/11/27 11:28:57;;;;;;;0.00;0.00;;;5.20;99.90;;;;;;4976920;28;20286;-62
2021/11/27 11:31:31;;;;;;;0.00;0.00;;;5.10;99.90;;;;;;4976947;28;20043;-62
2021/11/27 11:34:01;;;;;;;0.10;0.10;;;5.10;99.90;;;;;;4976810;28;20037;-63
2021/11/27 11:36:27;;;;;;;0.10;0.10;;;5.10;99.90;;;;;;4976752;28;20431;-62
2021/11/27 11:38:57;;;;;;;5.47;1.55;;;5.20;99.90;;;;;;4980169;28;20471;-63
2021/11/27 11:41:27;;;;;;;0.10;0.10;;;5.20;99.90;;;;;;4995997;28;20057;-63
2021/11/27 11:43:54;;;;;;;0.10;0.10;;;5.20;99.90;;;;;;4981103;28;20039;-64
2021/11/27 11:46:21;;;;;;;0.10;0.10;;;5.20;99.90;;;;;;4975028;28;20110;-64
2021/11/27 11:48:57;;;;;;;0.00;0.00;;;5.20;99.90;;;;;;4974693;28;20488;-65
2021/11/27 11:51:48;;;;;;;0.00;0.00;;;5.10;99.90;;;;;;4976004;28;20426;-65
2021/11/27 11:54:14;;;;;;;0.30;0.30;;;5.10;99.90;;;;;;4976017;28;20552;-65
2021/11/27 11:56:45;;;;;;;0.70;0.70;;;5.20;99.90;;;;;;4975151;28;20066;-64
2021/11/27 11:59:27;;;;;;;0.10;0.10;;;5.20;99.90;;;;;;4975445;28;20085;-64
2021/11/27 12:02:14;;;;;;;0.10;0.10;;;5.20;99.90;;;;;;4959665;28;20412;-65
2021/11/27 12:05:07;;;;;;;0.10;0.10;;;5.20;99.90;;;;;;4976695;28;20039;-65
2021/11/27 12:07:42;;;;;;;0.10;0.10;;;5.30;99.90;;;;;;4976287;28;20039;-65
2021/11/27 12:10:27;;;;;;;0.55;0.55;;;5.40;99.90;;;;;;4990386;28;20563;-64
2021/11/27 12:13:08;;;;;;;0.00;0.00;;;5.40;99.90;;;;;;4994443;28;20046;-63
2021/11/27 12:15:43;;;;;;;0.10;0.10;;;5.40;99.90;;;;;;4996062;28;20041;-63
2021/11/27 12:18:18;;;;;;;0.10;0.10;;;5.30;99.90;;;;;;4995855;28;20035;-63
2021/11/27 12:21:01;;;;;;;0.10;0.10;;;5.40;99.90;;;;;;4994777;28;20045;-63
2021/11/27 12:23:36;;;;;;;0.00;0.00;;;5.50;99.90;;;;;;4995450;28;20030;-64
2021/11/27 12:26:11;;;;;;;0.20;0.20;;;5.60;99.90;;;;;;5010582;28;20037;-64
2021/11/27 12:28:50;;;;;;;0.00;0.00;;;5.70;99.90;;;;;;4995192;28;20045;-64
2021/11/27 12:31:22;;;;;;;0.47;0.47;;;5.60;99.90;;;;;;5010350;28;20042;-64
2021/11/27 12:34:02;;;;;;;0.03;0.03;;;5.70;99.90;;;;;;4995325;28;20039;-65
2021/11/27 12:36:28;;;;;;;0.00;0.00;;;5.60;99.90;;;;;;4995336;28;20027;-64
2021/11/27 12:38:57;;;;;;;0.50;0.50;;;5.60;99.90;;;;;;4990741;28;20039;-65
2021/11/27 12:41:28;;;;;;;0.00;0.00;;;5.70;99.90;;;;;;4974192;28;20031;-63
2021/11/27 12:44:43;;;;;;;0.65;0.65;;;5.50;99.90;;;;;;4925938;28;20047;-62
2021/11/27 12:47:19;;;;;;;0.10;0.10;;;5.50;99.90;;;;;;4975613;28;20039;-63
2021/11/27 12:49:45;;;;;;;0.85;0.65;;;5.50;99.90;;;;;;4989641;28;20538;-63
2021/11/27 12:52:14;;;;;;;0.10;0.10;;;5.50;99.90;;;;;;4973923;28;20027;-63
2021/11/27 12:54:49;;;;;;;0.75;0.75;;;5.50;99.90;;;;;;4975166;28;20113;-63
2021/11/27 12:57:26;;;;;;;0.10;0.10;;;5.40;99.90;;;;;;4974393;28;20038;-62
2021/11/27 13:00:10;;;;;;;0.05;0.05;;;5.40;99.90;;;;;;4975510;28;20031;-62
2021/11/27 13:02:52;;;;;;;0.10;0.10;;;5.40;99.90;;;;;;4975187;28;20177;-63
2021/11/27 13:05:20;;;;;;;0.57;0.57;;;5.50;99.90;;;;;;4974373;28;20029;-63
2021/11/27 13:07:46;;;;;;;0.00;0.00;;;5.40;99.90;;;;;;4975511;28;20188;-63
2021/11/27 13:10:12;;;;;;;0.20;0.20;;;5.50;99.90;;;;;;4975012;28;20121;-62